createdAt,value
2024-03-22T00:00:10.185Z,96730.00
2024-03-22T00:00:43.105Z,96727.00
2024-03-22T00:01:44.015Z,96726.00
2024-03-22T00:02:43.100Z,96724.00
2024-03-22T00:03:43.111Z,96721.00
2024-03-22T00:09:27.516Z,96727.00
2024-03-22T00:10:00.568Z,96727.00
2024-03-22T00:11:00.537Z,96723.00
2024-03-22T00:12:00.549Z,96725.00
2024-03-22T00:13:00.556Z,96727.00
2024-03-22T00:14:00.524Z,96730.00
2024-03-22T00:15:34.358Z,96729.00
2024-03-22T00:16:00.575Z,96729.00
2024-03-22T00:17:00.522Z,96728.00
2024-03-22T00:18:00.512Z,96728.00
2024-03-22T00:19:00.525Z,96729.00
2024-03-22T00:20:00.559Z,96729.00
2024-03-22T00:21:00.566Z,96725.00
2024-03-22T00:22:00.530Z,96722.00
2024-03-22T00:23:00.523Z,96720.00
2024-03-22T00:24:00.574Z,96720.00
2024-03-22T00:25:00.544Z,96721.00
2024-03-22T00:26:00.571Z,96722.00
2024-03-22T00:27:00.536Z,96724.00
2024-03-22T00:28:00.539Z,96725.00
2024-03-22T00:29:00.556Z,96726.00
2024-03-22T00:30:01.303Z,96722.00
2024-03-22T00:33:45.397Z,96718.00
2024-03-22T00:34:09.224Z,96719.00
2024-03-22T00:36:43.899Z,96718.00
2024-03-22T00:37:13.582Z,96718.00
2024-03-22T00:38:13.580Z,96718.00
2024-03-22T00:39:13.592Z,96717.00
2024-03-22T00:40:42.046Z,96716.00
2024-03-22T00:41:13.580Z,96716.00
2024-03-22T00:42:13.578Z,96712.00
2024-03-22T00:43:13.578Z,96712.00
2024-03-22T00:44:13.599Z,96714.00
2024-03-22T00:45:13.627Z,96711.00
2024-03-22T00:49:53.671Z,96711.00
2024-03-22T00:50:26.636Z,96710.00
2024-03-22T00:51:26.641Z,96707.00
2024-03-22T00:52:26.645Z,96706.00
2024-03-22T00:53:26.639Z,96707.00
2024-03-22T00:54:26.640Z,96704.00
2024-03-22T00:55:26.644Z,96705.00
2024-03-22T00:56:26.643Z,96707.00
2024-03-22T00:57:26.652Z,96706.00
2024-03-22T01:00:17.083Z,96709.00
2024-03-22T01:00:50.076Z,96704.00
2024-03-22T01:01:50.069Z,96706.00
2024-03-22T01:02:50.077Z,96705.00
2024-03-22T01:03:50.078Z,96703.00
2024-03-22T01:04:50.067Z,96700.00
2024-03-22T01:05:50.063Z,96699.00
2024-03-22T01:06:50.067Z,96699.00
2024-03-22T01:07:52.336Z,96702.00
2024-03-22T01:10:28.361Z,96701.00
2024-03-22T01:11:01.327Z,96702.00
2024-03-22T01:12:01.329Z,96700.00
2024-03-22T01:13:01.334Z,96701.00
2024-03-22T01:14:01.354Z,96697.00
2024-03-22T01:15:01.331Z,96695.00
2024-03-22T01:16:01.361Z,96695.00
2024-03-22T01:17:01.336Z,96694.00
2024-03-22T01:18:01.336Z,96695.00
2024-03-22T01:19:01.363Z,96696.00
2024-03-22T01:20:01.347Z,96699.00
2024-03-22T01:21:01.358Z,96698.00
2024-03-22T01:22:01.354Z,96697.00
2024-03-22T01:23:01.371Z,96696.00
2024-03-22T01:24:01.346Z,96696.00
2024-03-22T01:25:01.383Z,96696.00
2024-03-22T01:26:01.374Z,96696.00
2024-03-22T01:27:01.353Z,96693.00
2024-03-22T01:28:01.358Z,96691.00
2024-03-22T01:29:01.350Z,96688.00
2024-03-22T01:30:01.407Z,96689.00
2024-03-22T01:31:01.357Z,96689.00
2024-03-22T01:32:01.390Z,96690.00
2024-03-22T01:33:01.355Z,96687.00
2024-03-22T01:34:01.358Z,96687.00
2024-03-22T01:35:01.355Z,96688.00
2024-03-22T01:36:01.365Z,96687.00
2024-03-22T01:37:01.363Z,96689.00
2024-03-22T01:38:01.369Z,96691.00
2024-03-22T01:39:01.385Z,96692.00
2024-03-22T01:40:01.365Z,96691.00
2024-03-22T01:41:01.372Z,96689.00
2024-03-22T01:42:01.371Z,96685.00
2024-03-22T01:43:01.367Z,96681.00
2024-03-22T01:44:01.396Z,96678.00
2024-03-22T01:45:01.380Z,96675.00
2024-03-22T01:46:01.381Z,96677.00
2024-03-22T01:47:01.390Z,96675.00
2024-03-22T01:48:01.367Z,96676.00
2024-03-22T01:49:01.376Z,96676.00
2024-03-22T01:50:01.406Z,96674.00
2024-03-22T01:51:01.375Z,96674.00
2024-03-22T01:52:01.376Z,96669.00
2024-03-22T01:53:01.370Z,96673.00
2024-03-22T01:54:01.376Z,96670.00
2024-03-22T01:55:01.390Z,96671.00
2024-03-22T01:56:01.398Z,96670.00
2024-03-22T01:57:01.391Z,96670.00
2024-03-22T01:58:01.392Z,96667.00
2024-03-22T01:59:01.379Z,96669.00
2024-03-22T02:00:01.410Z,96663.00
2024-03-22T02:01:01.424Z,96660.00
2024-03-22T02:03:32.772Z,96660.00
2024-03-22T02:04:05.739Z,96663.00
2024-03-22T02:05:05.746Z,96659.00
2024-03-22T02:06:05.769Z,96657.00
2024-03-22T02:07:05.747Z,96656.00
2024-03-22T02:08:05.752Z,96654.00
2024-03-22T02:09:05.750Z,96651.00
2024-03-22T02:10:05.747Z,96652.00
2024-03-22T02:11:05.760Z,96650.00
2024-03-22T02:12:05.747Z,96648.00
2024-03-22T02:13:05.755Z,96646.00
2024-03-22T02:14:05.750Z,96644.00
2024-03-22T02:15:05.754Z,96642.00
2024-03-22T02:16:05.760Z,96642.00
2024-03-22T02:17:05.751Z,96641.00
2024-03-22T02:22:50.173Z,96637.00
2024-03-22T02:23:23.157Z,96636.00
2024-03-22T02:24:23.159Z,96637.00
2024-03-22T02:25:23.145Z,96635.00
2024-03-22T02:26:23.179Z,96637.00
2024-03-22T02:27:23.152Z,96636.00
2024-03-22T02:28:23.149Z,96635.00
2024-03-22T02:29:23.163Z,96635.00
2024-03-22T02:30:23.158Z,96635.00
2024-03-22T02:31:23.164Z,96632.00
2024-03-22T02:32:23.159Z,96633.00
2024-03-22T02:33:23.182Z,96630.00
2024-03-22T02:34:23.190Z,96628.00
2024-03-22T02:35:23.165Z,96632.00
2024-03-22T02:36:23.169Z,96630.00
2024-03-22T02:37:23.156Z,96629.00
2024-03-22T02:38:23.174Z,96628.00
2024-03-22T02:39:23.162Z,96626.00
2024-03-22T02:40:23.176Z,96625.00
2024-03-22T02:41:23.175Z,96624.00
2024-03-22T02:42:23.178Z,96623.00
2024-03-22T02:44:54.536Z,96620.00
2024-03-22T02:45:27.526Z,96617.00
2024-03-22T02:46:27.520Z,96617.00
2024-03-22T02:47:27.521Z,96615.00
2024-03-22T02:48:27.531Z,96615.00
2024-03-22T02:49:27.531Z,96614.00
2024-03-22T02:50:27.534Z,96617.00
2024-03-22T02:51:27.539Z,96617.00
2024-03-22T02:52:27.524Z,96621.00
2024-03-22T02:53:27.535Z,96622.00
2024-03-22T02:54:27.531Z,96624.00
2024-03-22T02:55:27.538Z,96623.00
2024-03-22T02:56:27.542Z,96624.00
2024-03-22T02:57:27.605Z,96619.00
2024-03-22T02:58:27.537Z,96619.00
2024-03-22T02:59:27.544Z,96617.00
2024-03-22T03:00:27.546Z,96618.00
2024-03-22T03:01:27.549Z,96616.00
2024-03-22T03:02:27.552Z,96617.00
2024-03-22T03:03:27.538Z,96614.00
2024-03-22T03:04:27.547Z,96613.00
2024-03-22T03:05:27.595Z,96611.00
2024-03-22T03:06:27.551Z,96609.00
2024-03-22T03:07:27.552Z,96608.00
2024-03-22T03:08:27.559Z,96608.00
2024-03-22T03:09:27.555Z,96610.00
2024-03-22T03:10:27.562Z,96613.00
2024-03-22T03:11:27.598Z,96614.00
2024-03-22T03:12:27.563Z,96614.00
2024-03-22T03:13:27.555Z,96610.00
2024-03-22T03:14:27.570Z,96608.00
2024-03-22T03:15:27.572Z,96604.00
2024-03-22T03:17:58.960Z,96604.00
2024-03-22T03:18:31.946Z,96604.00
2024-03-22T03:19:31.916Z,96605.00
2024-03-22T03:20:31.914Z,96604.00
2024-03-22T03:21:31.933Z,96605.00
2024-03-22T03:22:31.922Z,96604.00
2024-03-22T03:23:31.929Z,96602.00
2024-03-22T03:24:32.009Z,96600.00
2024-03-22T03:25:31.929Z,96598.00
2024-03-22T03:26:31.934Z,96595.00
2024-03-22T03:27:31.926Z,96596.00
2024-03-22T03:28:31.933Z,96597.00
2024-03-22T03:29:31.935Z,96600.00
2024-03-22T03:30:31.950Z,96600.00
2024-03-22T03:31:31.951Z,96603.00
2024-03-22T03:32:31.959Z,96601.00
2024-03-22T03:33:31.939Z,96599.00
2024-03-22T03:34:31.947Z,96599.00
2024-03-22T03:35:31.945Z,96600.00
2024-03-22T03:36:31.950Z,96598.00
2024-03-22T03:37:31.953Z,96598.00
2024-03-22T03:38:31.977Z,96596.00
2024-03-22T03:39:31.978Z,96596.00
2024-03-22T03:40:31.955Z,96596.00
2024-03-22T03:41:31.958Z,96597.00
2024-03-22T03:42:31.968Z,96600.00
2024-03-22T03:43:31.959Z,96601.00
2024-03-22T03:44:31.960Z,96600.00
2024-03-22T03:45:31.952Z,96599.00
2024-03-22T03:46:31.960Z,96599.00
2024-03-22T03:47:31.955Z,96597.00
2024-03-22T03:48:31.965Z,96595.00
2024-03-22T03:49:31.956Z,96593.00
2024-03-22T03:50:31.977Z,96590.00
2024-03-22T03:51:31.967Z,96588.00
2024-03-22T03:52:31.953Z,96582.00
2024-03-22T03:53:31.967Z,96579.00
2024-03-22T03:54:31.972Z,96578.00
2024-03-22T03:55:31.963Z,96578.00
2024-03-22T03:56:31.968Z,96575.00
2024-03-22T03:57:31.960Z,96577.00
2024-03-22T03:58:31.979Z,96575.00
2024-03-22T03:59:31.956Z,96575.00
2024-03-22T04:00:31.961Z,96576.00
2024-03-22T04:01:31.971Z,96577.00
2024-03-22T04:02:31.993Z,96578.00
2024-03-22T04:03:31.974Z,96578.00
2024-03-22T04:04:31.967Z,96579.00
2024-03-22T04:05:31.979Z,96577.00
2024-03-22T04:06:58.987Z,96575.00
2024-03-22T04:07:31.998Z,96572.00
2024-03-22T04:08:31.978Z,96571.00
2024-03-22T04:09:32.003Z,96569.00
2024-03-22T04:10:32.009Z,96568.00
2024-03-22T04:11:31.994Z,96569.00
2024-03-22T04:12:31.993Z,96571.00
2024-03-22T04:13:31.979Z,96573.00
2024-03-22T04:14:31.979Z,96573.00
2024-03-22T04:15:31.993Z,96574.00
2024-03-22T04:16:32.028Z,96577.00
2024-03-22T04:17:32.008Z,96575.00
2024-03-22T04:18:31.986Z,96577.00
2024-03-22T04:19:31.987Z,96577.00
2024-03-22T04:20:31.987Z,96578.00
2024-03-22T04:21:31.995Z,96578.00
2024-03-22T04:22:32.010Z,96580.00
2024-03-22T04:23:32.007Z,96583.00
2024-03-22T04:27:14.353Z,96582.00
2024-03-22T04:27:47.338Z,96581.00
2024-03-22T04:28:47.334Z,96580.00
2024-03-22T04:29:47.338Z,96581.00
2024-03-22T04:30:47.345Z,96584.00
2024-03-22T04:31:47.341Z,96585.00
2024-03-22T04:32:47.362Z,96586.00
2024-03-22T04:33:47.336Z,96588.00
2024-03-22T04:36:25.912Z,96585.00
2024-03-22T04:36:51.831Z,96589.00
2024-03-22T04:40:34.521Z,96596.00
2024-03-22T04:41:07.471Z,96595.00
2024-03-22T04:42:07.487Z,96596.00
2024-03-22T04:43:07.472Z,96594.00
2024-03-22T04:44:07.486Z,96593.00
2024-03-22T04:45:14.811Z,96590.00
2024-03-22T04:46:14.800Z,96592.00
2024-03-22T04:47:14.802Z,96593.00
2024-03-22T04:48:14.821Z,96595.00
2024-03-22T04:49:14.797Z,96595.00
2024-03-22T04:50:14.802Z,96592.00
2024-03-22T04:51:14.831Z,96592.00
2024-03-22T04:52:14.817Z,96590.00
2024-03-22T04:53:14.821Z,96591.00
2024-03-22T04:54:14.806Z,96591.00
2024-03-22T04:55:14.830Z,96593.00
2024-03-22T04:56:14.826Z,96594.00
2024-03-22T04:57:14.810Z,96592.00
2024-03-22T04:58:14.819Z,96594.00
2024-03-22T04:59:16.895Z,96596.00
2024-03-22T05:00:14.825Z,96594.00
2024-03-22T05:01:14.825Z,96595.00
2024-03-22T05:02:14.810Z,96597.00
2024-03-22T05:03:44.851Z,96595.00
2024-03-22T05:04:14.825Z,96596.00
2024-03-22T05:05:14.820Z,96594.00
2024-03-22T05:06:14.828Z,96596.00
2024-03-22T05:07:14.837Z,96594.00
2024-03-22T05:08:14.821Z,96594.00
2024-03-22T05:09:14.815Z,96597.00
2024-03-22T05:10:14.825Z,96598.00
2024-03-22T05:11:14.824Z,96597.00
2024-03-22T05:12:14.838Z,96594.00
2024-03-22T05:13:15.926Z,96594.00
2024-03-22T05:14:14.820Z,96591.00
2024-03-22T05:15:14.833Z,96587.00
2024-03-22T05:16:14.833Z,96588.00
2024-03-22T05:17:14.830Z,96588.00
2024-03-22T05:18:14.840Z,96585.00
2024-03-22T05:19:14.831Z,96586.00
2024-03-22T05:23:09.968Z,96583.00
2024-03-22T05:23:42.582Z,96584.00
2024-03-22T05:24:42.617Z,96582.00
2024-03-22T05:25:42.609Z,96581.00
2024-03-22T05:26:42.608Z,96581.00
2024-03-22T05:27:42.652Z,96580.00
2024-03-22T05:28:42.670Z,96583.00
2024-03-22T05:29:42.633Z,96581.00
2024-03-22T05:30:42.606Z,96584.00
2024-03-22T05:31:42.600Z,96584.00
2024-03-22T05:33:13.612Z,96585.00
2024-03-22T05:33:42.618Z,96585.00
2024-03-22T05:34:42.664Z,96585.00
2024-03-22T05:35:42.628Z,96584.00
2024-03-22T05:36:42.669Z,96582.00
2024-03-22T05:37:42.632Z,96584.00
2024-03-22T05:38:42.635Z,96581.00
2024-03-22T05:41:13.984Z,96582.00
2024-03-22T05:41:47.112Z,96581.00
2024-03-22T05:42:46.956Z,96579.00
2024-03-22T05:43:46.964Z,96579.00
2024-03-22T05:44:46.998Z,96578.00
2024-03-22T05:45:46.968Z,96580.00
2024-03-22T05:46:47.018Z,96578.00
2024-03-22T05:47:46.995Z,96579.00
2024-03-22T05:48:46.983Z,96580.00
2024-03-22T05:49:49.864Z,96578.00
2024-03-22T05:50:47.032Z,96576.00
2024-03-22T05:52:14.025Z,96577.00
2024-03-22T05:52:47.010Z,96578.00
2024-03-22T05:53:47.072Z,96579.00
2024-03-22T05:54:46.983Z,96576.00
2024-03-22T05:55:47.023Z,96576.00
2024-03-22T05:56:46.997Z,96576.00
2024-03-22T05:57:47.007Z,96578.00
2024-03-22T05:58:46.996Z,96577.00
2024-03-22T05:59:47.003Z,96576.00
2024-03-22T06:00:47.008Z,96576.00
2024-03-22T06:01:46.999Z,96577.00
2024-03-22T06:02:47.003Z,96580.00
2024-03-22T06:03:47.001Z,96579.00
2024-03-22T06:04:47.232Z,96577.00
2024-03-22T06:05:47.020Z,96578.00
2024-03-22T06:06:47.027Z,96578.00
2024-03-22T06:07:47.004Z,96577.00
2024-03-22T06:08:47.027Z,96578.00
2024-03-22T06:12:27.563Z,96574.00
2024-03-22T06:12:55.695Z,96576.00
2024-03-22T06:18:51.956Z,96568.00
2024-03-22T06:19:22.592Z,96567.00
2024-03-22T06:20:22.621Z,96567.00
2024-03-22T06:21:22.658Z,96566.00
2024-03-22T06:22:22.718Z,96565.00
2024-03-22T06:23:22.751Z,96563.00
2024-03-22T06:24:22.785Z,96559.00
2024-03-22T06:25:22.805Z,96558.00
2024-03-22T06:26:31.859Z,96558.00
2024-03-22T06:27:23.861Z,96556.00
2024-03-22T06:28:22.843Z,96558.00
2024-03-22T06:29:22.847Z,96560.00
2024-03-22T06:30:22.881Z,96558.00
2024-03-22T06:31:22.833Z,96557.00
2024-03-22T06:32:22.848Z,96553.00
2024-03-22T06:33:22.879Z,96554.00
2024-03-22T06:34:22.841Z,96553.00
2024-03-22T06:35:22.835Z,96553.00
2024-03-22T06:36:22.854Z,96552.00
2024-03-22T06:38:54.251Z,96546.00
2024-03-22T06:39:27.227Z,96548.00
2024-03-22T06:45:24.490Z,96548.00
2024-03-22T06:45:55.903Z,96549.00
2024-03-22T06:46:55.882Z,96548.00
2024-03-22T06:47:55.908Z,96544.00
2024-03-22T07:08:31.808Z,96525.00
2024-03-22T07:29:23.888Z,96519.00
2024-03-22T07:30:01.322Z,96518.00
2024-03-22T07:33:37.326Z,96518.00
2024-03-22T07:40:03.239Z,96517.00
2024-03-22T07:40:36.185Z,96516.00
2024-03-22T07:41:36.195Z,96516.00
2024-03-22T07:45:14.499Z,96514.00
